Time;durP1;ratioP1;P1;durP2;ratioP2;P2;SDS_P1;SDS_P2;PMS_P1;PMS_P2;Temp;Humidity;BMP_temperature;BMP_pressure;BME280_temperature;BME280_humidity;BME280_pressure;Samples;Min_cycle;Max_cycle;Signal;HPM_P1;HPM_P2
2022/08/28 00:02:16;;;;;;;19.30;10.82;;;18.00;99.90;;;;;;5074773;28;20120;-58
2022/08/28 00:04:41;;;;;;;14.77;11.13;;;18.00;99.90;;;;;;5074991;28;20056;-58
2022/08/28 00:07:08;;;;;;;13.95;10.73;;;18.00;99.90;;;;;;5078935;28;20100;-58
2022/08/28 00:09:34;;;;;;;18.17;12.38;;;18.00;99.90;;;;;;5093733;28;20028;-58
2022/08/28 00:12:00;;;;;;;20.00;13.45;;;18.00;99.90;;;;;;5095109;28;20032;-56
2022/08/28 00:14:26;;;;;;;17.33;12.50;;;18.00;99.90;;;;;;5094817;28;20024;-57
2022/08/28 00:16:53;;;;;;;17.50;13.05;;;18.00;99.90;;;;;;5094974;28;20028;-59
2022/08/28 00:19:20;;;;;;;15.32;12.10;;;18.00;99.90;;;;;;5093539;28;20076;-58
2022/08/28 00:21:46;;;;;;;19.45;14.00;;;18.00;99.90;;;;;;5090923;28;20021;-58
2022/08/28 00:24:12;;;;;;;14.82;11.00;;;18.00;99.90;;;;;;5074384;28;20516;-56
2022/08/28 00:29:22;;;;;;;18.38;9.30;;;18.00;99.90;;;;;;5074493;28;20036;-57
2022/08/28 00:31:48;;;;;;;10.55;9.25;;;18.00;99.90;;;;;;5074288;28;20037;-59
2022/08/28 00:34:20;;;;;;;13.13;9.88;;;18.00;99.90;;;;;;5074250;28;20375;-57
2022/08/28 00:36:46;;;;;;;18.75;10.38;;;18.00;99.90;;;;;;5080158;28;20024;-56
2022/08/28 00:39:12;;;;;;;11.55;9.40;;;18.00;99.90;;;;;;5094293;28;20043;-56
2022/08/28 00:41:39;;;;;;;11.77;9.50;;;18.10;99.90;;;;;;5094555;28;20024;-57
2022/08/28 00:44:21;;;;;;;14.52;9.43;;;18.10;99.90;;;;;;5094631;28;20099;-59
2022/08/28 00:46:48;;;;;;;14.60;9.40;;;18.20;99.90;;;;;;5094553;28;20031;-57
2022/08/28 00:49:18;;;;;;;11.77;9.18;;;18.20;99.90;;;;;;5094056;28;20162;-55
2022/08/28 00:54:32;;;;;;;11.38;8.98;;;18.10;99.90;;;;;;5094185;28;20082;-58
2022/08/28 00:57:01;;;;;;;9.23;7.72;;;18.10;99.90;;;;;;5094295;28;20032;-58
2022/08/28 00:59:27;;;;;;;17.30;9.23;;;18.10;99.90;;;;;;5094002;28;20016;-57
2022/08/28 01:01:55;;;;;;;9.23;7.70;;;18.10;99.90;;;;;;5094198;28;20016;-57
2022/08/28 01:04:23;;;;;;;13.10;9.00;;;18.00;99.90;;;;;;5093113;28;20115;-57
2022/08/28 01:06:52;;;;;;;13.00;9.05;;;18.10;99.90;;;;;;5082956;28;20040;-58
2022/08/28 01:09:20;;;;;;;9.52;8.05;;;18.10;99.90;;;;;;5073620;28;20491;-57
2022/08/28 01:11:48;;;;;;;13.70;7.70;;;18.10;99.90;;;;;;5074888;28;20028;-56
2022/08/28 01:14:17;;;;;;;11.32;7.57;;;18.20;99.90;;;;;;5073377;28;20024;-56
2022/08/28 01:16:44;;;;;;;12.13;8.35;;;18.10;99.90;;;;;;5073584;28;20111;-57
2022/08/28 01:19:18;;;;;;;7.68;6.72;;;18.10;99.90;;;;;;5073559;28;20107;-59
2022/08/28 01:22:00;;;;;;;8.82;7.18;;;18.10;99.90;;;;;;5073432;28;20023;-58
2022/08/28 01:24:26;;;;;;;7.55;6.70;;;18.20;99.90;;;;;;5073332;28;20548;-58
2022/08/28 01:26:52;;;;;;;15.63;8.20;;;18.20;99.90;;;;;;5082436;28;20032;-58
2022/08/28 01:29:24;;;;;;;9.02;7.60;;;18.30;99.90;;;;;;5093241;28;20089;-55
2022/08/28 01:31:49;;;;;;;16.23;7.55;;;18.20;99.90;;;;;;5092907;28;20024;-57
2022/08/28 01:34:15;;;;;;;19.00;8.02;;;18.30;99.90;;;;;;5092985;28;20429;-56
2022/08/28 01:36:41;;;;;;;10.55;8.38;;;18.20;99.90;;;;;;5092742;28;20050;-56
2022/08/28 01:39:14;;;;;;;9.13;8.18;;;18.20;99.90;;;;;;5093475;28;20026;-56
2022/08/28 01:41:43;;;;;;;9.20;8.05;;;18.20;99.90;;;;;;5093275;28;20028;-57
2022/08/28 01:44:09;;;;;;;12.82;8.82;;;18.10;99.90;;;;;;5077963;28;20147;-57
2022/08/28 01:46:35;;;;;;;9.88;8.80;;;18.10;99.90;;;;;;5073038;28;20119;-58
2022/08/28 01:49:00;;;;;;;9.30;8.35;;;18.10;99.90;;;;;;5072932;28;20028;-58
2022/08/28 01:51:26;;;;;;;11.20;8.18;;;18.10;99.90;;;;;;5072752;28;20136;-56
2022/08/28 01:53:52;;;;;;;10.77;8.57;;;18.10;99.90;;;;;;5072814;28;20601;-58
2022/08/28 01:56:18;;;;;;;11.82;10.55;;;18.10;99.90;;;;;;5076541;28;20024;-58
2022/08/28 01:58:46;;;;;;;13.48;10.57;;;18.10;99.90;;;;;;5092973;28;20112;-54
2022/08/28 02:01:16;;;;;;;13.05;10.55;;;18.10;99.90;;;;;;5092951;28;20070;-56
2022/08/28 02:03:42;;;;;;;15.23;9.90;;;18.10;99.90;;;;;;5092822;28;20495;-57
2022/08/28 02:06:08;;;;;;;11.15;9.98;;;18.10;99.90;;;;;;5092895;28;20390;-58
2022/08/28 02:08:35;;;;;;;11.95;9.82;;;18.10;99.90;;;;;;5092473;28;20093;-58
2022/08/28 02:11:01;;;;;;;14.02;11.40;;;18.10;99.90;;;;;;5088576;28;20024;-57
2022/08/28 02:13:27;;;;;;;12.85;10.20;;;18.10;99.90;;;;;;5078562;28;20016;-58
2022/08/28 02:15:53;;;;;;;13.85;10.18;;;18.10;99.90;;;;;;5092766;28;20024;-56
2022/08/28 02:18:20;;;;;;;16.05;11.75;;;18.10;99.90;;;;;;5092539;28;20097;-58
2022/08/28 02:20:46;;;;;;;14.07;11.18;;;18.00;99.90;;;;;;5092499;28;20038;-56
2022/08/28 02:23:12;;;;;;;14.48;11.20;;;18.00;99.90;;;;;;5092477;28;20648;-57
2022/08/28 02:25:38;;;;;;;12.98;11.25;;;18.10;99.90;;;;;;5092534;28;20028;-58
2022/08/28 02:28:04;;;;;;;15.23;11.23;;;18.10;99.90;;;;;;5090428;28;20039;-57
2022/08/28 02:30:29;;;;;;;14.48;10.38;;;18.20;99.90;;;;;;5092283;28;20028;-58
2022/08/28 02:32:55;;;;;;;13.82;11.05;;;18.20;99.90;;;;;;5092559;28;20035;-58
2022/08/28 02:35:22;;;;;;;15.40;10.90;;;18.20;99.90;;;;;;5092047;28;20028;-56
2022/08/28 02:37:49;;;;;;;11.52;9.32;;;18.10;99.90;;;;;;5092214;28;20056;-58
2022/08/28 02:40:17;;;;;;;13.80;9.98;;;18.20;99.90;;;;;;5092206;28;20032;-57
2022/08/28 02:42:44;;;;;;;11.23;9.55;;;18.20;99.90;;;;;;5091729;28;20455;-58
2022/08/28 02:45:11;;;;;;;13.02;10.07;;;18.20;99.90;;;;;;5092210;28;20436;-59
2022/08/28 02:47:39;;;;;;;12.35;10.23;;;18.20;99.90;;;;;;5092285;28;20533;-58
2022/08/28 02:50:06;;;;;;;14.68;11.63;;;18.10;99.90;;;;;;5092177;28;20024;-58
2022/08/28 02:52:33;;;;;;;15.10;11.57;;;18.10;99.90;;;;;;5074390;28;20060;-57
2022/08/28 02:54:59;;;;;;;14.43;12.00;;;18.10;99.90;;;;;;5071731;28;20119;-58
2022/08/28 02:57:26;;;;;;;13.30;11.60;;;18.00;99.90;;;;;;5071603;28;20100;-59
2022/08/28 02:59:51;;;;;;;14.13;9.65;;;18.00;99.90;;;;;;5071735;28;20111;-58
2022/08/28 03:02:17;;;;;;;13.70;8.65;;;18.00;99.90;;;;;;5071610;28;20099;-55
2022/08/28 03:04:43;;;;;;;10.60;8.25;;;18.10;99.90;;;;;;5071590;28;20428;-57
2022/08/28 03:07:12;;;;;;;12.63;8.32;;;18.10;99.90;;;;;;5071358;28;20080;-56
2022/08/28 03:09:40;;;;;;;11.40;7.78;;;18.10;99.90;;;;;;5071655;28;20024;-57
2022/08/28 03:12:07;;;;;;;9.95;7.70;;;18.10;99.90;;;;;;5071570;28;20074;-56
2022/08/28 03:14:32;;;;;;;8.95;7.75;;;18.10;99.90;;;;;;5079397;28;20431;-58
2022/08/28 03:17:00;;;;;;;9.40;7.68;;;18.00;99.90;;;;;;5091794;28;20073;-58
2022/08/28 03:19:26;;;;;;;11.20;8.27;;;18.00;99.90;;;;;;5091444;28;20485;-59
2022/08/28 03:21:52;;;;;;;11.93;9.02;;;17.90;99.90;;;;;;5091791;28;20099;-58
2022/08/28 03:24:18;;;;;;;10.57;8.60;;;17.90;99.90;;;;;;5091580;28;20043;-59
2022/08/28 03:26:43;;;;;;;11.18;7.10;;;17.90;99.90;;;;;;5091564;28;20024;-54
2022/08/28 03:29:09;;;;;;;7.78;6.95;;;18.10;99.90;;;;;;5083883;28;20399;-58
2022/08/28 03:31:35;;;;;;;12.40;7.07;;;18.10;99.90;;;;;;5071435;28;20115;-57
2022/08/28 03:34:01;;;;;;;16.23;9.00;;;18.10;99.90;;;;;;5071175;28;20067;-58
2022/08/28 03:36:27;;;;;;;10.38;8.80;;;18.00;99.90;;;;;;5071198;28;20031;-58
2022/08/28 03:38:56;;;;;;;12.57;7.38;;;18.00;99.90;;;;;;5071440;28;20011;-57
2022/08/28 03:41:24;;;;;;;14.52;8.50;;;18.10;99.90;;;;;;5071165;28;20103;-58
2022/08/28 03:43:50;;;;;;;6.55;5.10;;;18.10;99.90;;;;;;5073011;28;20471;-57
2022/08/28 03:46:22;;;;;;;9.13;5.45;;;18.00;99.90;;;;;;5091260;28;20028;-56
2022/08/28 03:48:49;;;;;;;5.18;4.38;;;17.80;99.90;;;;;;5091375;28;20059;-57
2022/08/28 03:51:17;;;;;;;6.25;4.00;;;17.80;99.90;;;;;;5091249;28;20413;-57
2022/08/28 03:53:43;;;;;;;6.32;4.22;;;17.80;99.90;;;;;;5091242;28;20622;-58
2022/08/28 03:56:11;;;;;;;6.78;4.22;;;17.70;99.90;;;;;;5091309;28;20028;-57
2022/08/28 03:58:39;;;;;;;6.75;4.78;;;17.60;99.90;;;;;;5088334;28;20585;-58
2022/08/28 04:01:05;;;;;;;8.73;5.40;;;17.60;99.90;;;;;;5070617;28;20043;-59
2022/08/28 04:03:31;;;;;;;6.15;4.20;;;17.60;99.90;;;;;;5070890;28;20024;-54
2022/08/28 04:05:57;;;;;;;5.40;4.03;;;17.60;99.90;;;;;;5070995;28;20033;-58
2022/08/28 04:08:23;;;;;;;4.40;3.97;;;17.70;99.90;;;;;;5084350;28;20078;-58
2022/08/28 04:10:50;;;;;;;4.07;3.63;;;17.80;99.90;;;;;;5090991;28;20050;-55
2022/08/28 04:13:18;;;;;;;4.38;3.97;;;17.80;99.90;;;;;;5091250;28;20035;-58
2022/08/28 04:15:44;;;;;;;5.38;4.88;;;17.70;99.90;;;;;;5091011;28;20028;-58
2022/08/28 04:18:11;;;;;;;5.78;4.45;;;17.70;99.90;;;;;;5091047;28;20051;-58
2022/08/28 04:20:37;;;;;;;5.07;4.57;;;17.70;99.90;;;;;;5089876;28;20028;-58
2022/08/28 04:23:04;;;;;;;8.05;4.75;;;17.70;99.90;;;;;;5090926;28;20398;-57
2022/08/28 04:25:30;;;;;;;5.93;4.15;;;17.70;99.90;;;;;;5089488;28;20057;-58
2022/08/28 04:27:56;;;;;;;6.65;4.07;;;17.60;99.90;;;;;;5091182;28;20119;-54
2022/08/28 04:30:22;;;;;;;4.20;3.88;;;17.60;99.90;;;;;;5090724;28;20103;-58
2022/08/28 04:32:48;;;;;;;5.32;3.47;;;17.50;99.90;;;;;;5090979;28;20028;-57
2022/08/28 04:35:14;;;;;;;3.17;2.95;;;17.50;99.90;;;;;;5090715;28;20448;-57
2022/08/28 04:37:40;;;;;;;3.30;3.00;;;17.40;99.90;;;;;;5081464;28;20021;-58
2022/08/28 04:40:09;;;;;;;3.28;3.03;;;17.50;99.90;;;;;;5072235;28;20082;-57
2022/08/28 04:42:36;;;;;;;4.07;3.13;;;17.40;99.90;;;;;;5074324;28;20016;-58
2022/08/28 04:45:02;;;;;;;3.42;2.75;;;17.40;99.90;;;;;;5074203;28;20032;-58
2022/08/28 04:47:27;;;;;;;3.70;3.08;;;17.40;99.90;;;;;;5073737;28;20025;-57
2022/08/28 04:49:54;;;;;;;5.07;3.70;;;17.40;99.90;;;;;;5074172;28;20419;-57
2022/08/28 04:52:21;;;;;;;4.22;3.30;;;17.40;99.90;;;;;;5072540;28;20750;-57
2022/08/28 04:54:47;;;;;;;4.95;3.65;;;17.40;99.90;;;;;;5073953;28;20105;-56
2022/08/28 04:57:13;;;;;;;7.25;4.30;;;17.40;99.90;;;;;;5072537;28;20523;-56
2022/08/28 04:59:40;;;;;;;4.82;4.32;;;17.40;99.90;;;;;;5073861;28;20100;-58
2022/08/28 05:02:06;;;;;;;4.47;4.07;;;17.50;99.90;;;;;;5073920;28;20028;-55
2022/08/28 05:04:32;;;;;;;5.78;4.20;;;17.50;99.90;;;;;;5073731;28;20028;-57
2022/08/28 05:06:58;;;;;;;5.03;4.32;;;17.60;99.90;;;;;;5075223;28;20046;-57
2022/08/28 05:09:23;;;;;;;3.42;3.10;;;17.60;99.90;;;;;;5094080;28;20058;-59
2022/08/28 05:11:50;;;;;;;5.13;3.92;;;17.50;99.90;;;;;;5093724;28;20068;-58
2022/08/28 05:14:16;;;;;;;4.15;3.60;;;17.50;99.90;;;;;;5093732;28;20045;-58
2022/08/28 05:16:45;;;;;;;4.47;4.07;;;17.50;99.90;;;;;;5093927;28;20035;-54
2022/08/28 05:19:11;;;;;;;3.75;3.35;;;17.50;99.90;;;;;;5093698;28;20024;-56
2022/08/28 05:21:37;;;;;;;3.88;3.55;;;17.50;99.90;;;;;;5093331;28;20030;-58
2022/08/28 05:24:04;;;;;;;5.57;3.88;;;17.50;99.90;;;;;;5093861;28;20395;-58
2022/08/28 05:26:30;;;;;;;6.78;3.47;;;17.60;99.90;;;;;;5093616;28;20738;-59
2022/08/28 05:28:56;;;;;;;3.20;2.90;;;17.60;99.90;;;;;;5093641;28;20098;-58
2022/08/28 05:31:23;;;;;;;3.75;3.45;;;17.70;99.90;;;;;;5093534;28;20024;-57
2022/08/28 05:33:50;;;;;;;5.15;4.43;;;17.70;99.90;;;;;;5093509;28;20428;-57
2022/08/28 05:36:18;;;;;;;4.80;3.63;;;17.70;99.90;;;;;;5093000;28;20028;-54
2022/08/28 05:38:44;;;;;;;4.53;2.95;;;17.80;99.90;;;;;;5051939;28;20484;-56
2022/08/28 05:41:10;;;;;;;5.25;3.60;;;17.70;99.90;;;;;;5053075;28;20033;-57
2022/08/28 05:43:36;;;;;;;6.25;3.90;;;17.80;99.90;;;;;;5053087;28;20013;-56
2022/08/28 05:46:06;;;;;;;5.68;3.97;;;17.80;99.90;;;;;;5053394;28;20486;-57
2022/08/28 05:48:32;;;;;;;5.72;4.57;;;17.70;99.90;;;;;;5052942;28;20029;-57
2022/08/28 05:51:02;;;;;;;3.72;3.33;;;17.70;99.90;;;;;;5051229;28;20079;-57
2022/08/28 05:53:29;;;;;;;4.72;3.53;;;17.80;99.90;;;;;;5093128;28;20028;-55
2022/08/28 05:55:54;;;;;;;3.97;2.97;;;17.90;99.90;;;;;;5093020;28;20024;-53
2022/08/28 05:58:39;;;;;;;3.55;3.25;;;17.90;99.90;;;;;;5092913;28;20683;-57
2022/08/28 06:01:07;;;;;;;5.13;3.30;;;17.90;99.90;;;;;;5093031;28;20021;-58
2022/08/28 06:03:34;;;;;;;4.78;3.80;;;18.00;99.90;;;;;;5091530;28;20024;-58
2022/08/28 06:06:00;;;;;;;3.63;3.33;;;18.10;99.90;;;;;;5090697;28;20028;-56
2022/08/28 06:08:27;;;;;;;5.00;4.10;;;18.10;99.90;;;;;;5072215;28;20506;-55
2022/08/28 06:10:53;;;;;;;5.00;3.83;;;18.10;99.90;;;;;;5072582;28;20074;-56
2022/08/28 06:13:18;;;;;;;8.52;4.43;;;18.20;99.90;;;;;;5071161;28;20036;-56
2022/08/28 06:15:45;;;;;;;7.07;4.30;;;18.10;99.90;;;;;;5072427;28;20052;-56
2022/08/28 06:18:11;;;;;;;6.72;3.85;;;18.10;99.90;;;;;;5072140;28;20050;-56
2022/08/28 06:20:41;;;;;;;3.78;3.47;;;18.20;99.90;;;;;;5072341;28;20086;-56
2022/08/28 06:23:11;;;;;;;5.57;4.50;;;18.20;99.90;;;;;;5072361;28;20052;-55
2022/08/28 06:25:45;;;;;;;6.53;4.05;;;18.20;99.90;;;;;;5072072;28;20025;-58
2022/08/28 06:28:13;;;;;;;5.55;4.38;;;18.20;99.90;;;;;;5072136;28;20052;-53
2022/08/28 06:30:40;;;;;;;4.65;4.00;;;18.10;99.90;;;;;;5072287;28;20375;-57
2022/08/28 06:33:06;;;;;;;5.03;4.53;;;18.20;99.90;;;;;;5072067;28;20028;-58
2022/08/28 06:35:33;;;;;;;7.07;5.07;;;18.20;99.90;;;;;;5072918;28;20040;-57
2022/08/28 06:37:59;;;;;;;5.60;3.88;;;18.30;99.90;;;;;;5071993;28;20024;-56
2022/08/28 06:40:26;;;;;;;16.35;5.00;;;18.30;99.90;;;;;;5071763;28;20012;-58
2022/08/28 06:42:52;;;;;;;5.80;5.03;;;18.30;99.90;;;;;;5071931;28;20017;-56
2022/08/28 06:45:18;;;;;;;5.72;4.80;;;18.40;99.90;;;;;;5071752;28;20028;-57
2022/08/28 06:47:45;;;;;;;7.18;4.78;;;18.40;99.90;;;;;;5071732;28;20103;-57
2022/08/28 06:50:11;;;;;;;4.60;4.20;;;18.50;99.90;;;;;;5072321;28;20491;-56
2022/08/28 06:52:37;;;;;;;4.72;4.30;;;18.60;99.90;;;;;;5091907;28;20064;-58
2022/08/28 06:55:03;;;;;;;5.32;4.88;;;18.60;99.90;;;;;;5092087;28;20485;-58
2022/08/28 06:57:28;;;;;;;5.05;4.32;;;18.60;99.90;;;;;;5091763;28;20036;-56
2022/08/28 06:59:57;;;;;;;4.97;4.13;;;18.70;99.90;;;;;;5091909;28;20024;-58
2022/08/28 07:02:23;;;;;;;5.05;4.07;;;18.80;99.90;;;;;;5090210;28;20035;-59
2022/08/28 07:04:50;;;;;;;4.95;4.22;;;18.80;99.90;;;;;;5091880;28;20028;-58
2022/08/28 07:07:16;;;;;;;4.22;3.88;;;18.90;99.90;;;;;;5091239;28;20044;-57
2022/08/28 07:09:42;;;;;;;4.45;3.80;;;19.10;99.90;;;;;;5091180;28;20023;-56
2022/08/28 07:12:08;;;;;;;3.65;3.35;;;19.20;99.90;;;;;;5090967;28;20095;-57
2022/08/28 07:14:36;;;;;;;5.78;3.67;;;19.30;99.90;;;;;;5090931;28;20158;-58
2022/08/28 07:17:02;;;;;;;4.13;3.70;;;19.30;99.90;;;;;;5083393;28;20044;-58
2022/08/28 07:19:27;;;;;;;9.48;3.72;;;19.30;99.90;;;;;;5071003;28;20370;-56
2022/08/28 07:21:54;;;;;;;5.50;4.53;;;19.20;99.90;;;;;;5070904;28;20032;-56
2022/08/28 07:24:20;;;;;;;4.32;3.72;;;19.10;99.90;;;;;;5070885;28;20107;-58
2022/08/28 07:26:46;;;;;;;7.15;4.10;;;19.10;99.90;;;;;;5071289;28;20372;-57
2022/08/28 07:29:13;;;;;;;3.63;3.33;;;19.00;99.90;;;;;;5071149;28;20021;-58
2022/08/28 07:31:44;;;;;;;4.10;3.72;;;19.10;99.90;;;;;;5091337;28;20028;-52
2022/08/28 07:34:12;;;;;;;3.83;3.28;;;19.30;99.90;;;;;;5091362;28;20027;-52
2022/08/28 07:36:39;;;;;;;4.80;3.33;;;19.20;99.90;;;;;;5085247;28;20127;-51
2022/08/28 07:39:05;;;;;;;3.50;3.08;;;19.20;99.90;;;;;;5071334;28;20016;-52
2022/08/28 07:41:34;;;;;;;3.00;2.70;;;19.20;99.90;;;;;;5069371;28;20025;-50
2022/08/28 07:46:44;;;;;;;3.03;2.50;;;19.50;99.90;;;;;;5071305;28;20055;-49
2022/08/28 07:49:11;;;;;;;3.30;2.65;;;19.70;99.90;;;;;;5070524;28;20601;-51
2022/08/28 07:51:37;;;;;;;4.25;3.15;;;19.60;99.90;;;;;;5070996;28;20468;-52
2022/08/28 07:54:04;;;;;;;3.08;2.13;;;19.50;99.90;;;;;;5070824;28;20055;-51
2022/08/28 07:56:30;;;;;;;3.25;2.88;;;19.60;99.90;;;;;;5070630;28;20035;-49
2022/08/28 07:58:57;;;;;;;2.30;2.10;;;19.60;99.90;;;;;;5070930;28;20009;-51
2022/08/28 08:01:23;;;;;;;2.75;2.55;;;19.40;99.90;;;;;;5070384;28;20381;-50
2022/08/28 08:03:49;;;;;;;1.95;1.80;;;19.40;99.90;;;;;;5078776;28;20390;-49
2022/08/28 08:06:15;;;;;;;2.95;2.00;;;19.50;99.90;;;;;;5090767;28;20024;-50
2022/08/28 08:08:41;;;;;;;1.70;1.60;;;19.60;99.90;;;;;;5089299;28;20068;-49
2022/08/28 08:11:09;;;;;;;3.60;1.60;;;19.70;99.90;;;;;;5090449;28;20048;-50
2022/08/28 08:13:37;;;;;;;3.72;2.00;;;19.70;99.90;;;;;;5091901;28;20020;-51
2022/08/28 08:16:06;;;;;;;1.80;1.70;;;19.60;99.90;;;;;;5094986;28;20095;-49
2022/08/28 08:18:32;;;;;;;2.20;2.00;;;19.30;99.90;;;;;;5093105;28;20709;-50
2022/08/28 08:20:59;;;;;;;5.15;3.05;;;19.60;99.90;;;;;;5093481;28;20024;-52
2022/08/28 08:23:25;;;;;;;2.33;2.13;;;19.40;99.90;;;;;;5094294;28;20065;-53
2022/08/28 08:25:59;;;;;;;4.10;3.80;;;19.50;99.90;;;;;;5085164;28;20033;-48
2022/08/28 08:28:26;;;;;;;10.20;8.07;;;19.70;99.90;;;;;;5073930;28;20406;-50
2022/08/28 08:31:07;;;;;;;2.90;2.70;;;19.70;99.90;;;;;;5074192;28;20435;-51
2022/08/28 08:33:33;;;;;;;3.05;2.85;;;19.90;99.90;;;;;;5074019;28;20380;-52
2022/08/28 08:35:59;;;;;;;2.42;2.25;;;19.80;99.90;;;;;;5074137;28;20024;-51
2022/08/28 08:38:27;;;;;;;3.10;2.42;;;19.90;99.90;;;;;;5075880;28;20032;-53
2022/08/28 08:40:53;;;;;;;3.60;2.67;;;20.20;99.90;;;;;;5073699;28;20044;-50
2022/08/28 08:43:20;;;;;;;2.95;2.42;;;20.20;99.90;;;;;;5073519;28;20108;-53
2022/08/28 08:45:48;;;;;;;2.63;2.42;;;20.50;99.90;;;;;;5077347;28;20020;-53
2022/08/28 08:48:34;;;;;;;3.70;2.45;;;20.70;99.90;;;;;;5069390;28;20020;-50
2022/08/28 08:51:13;;;;;;;2.17;2.00;;;20.40;99.90;;;;;;5073658;28;20463;-54
2022/08/28 08:53:48;;;;;;;3.05;2.58;;;20.60;99.90;;;;;;5073949;28;20024;-51
2022/08/28 08:56:15;;;;;;;2.70;2.50;;;20.60;99.90;;;;;;5072885;28;20036;-52
2022/08/28 08:58:48;;;;;;;3.15;2.05;;;20.30;99.90;;;;;;5076547;28;20021;-53
2022/08/28 09:01:37;;;;;;;5.38;2.20;;;20.40;99.90;;;;;;5073664;28;20032;-52
2022/08/28 09:04:15;;;;;;;3.08;2.33;;;20.50;99.90;;;;;;5073389;28;20032;-49
2022/08/28 09:06:48;;;;;;;5.15;2.47;;;20.40;99.90;;;;;;5072368;28;20028;-53
2022/08/28 09:09:25;;;;;;;5.30;2.28;;;20.20;99.90;;;;;;5071092;28;20042;-51
2022/08/28 09:11:57;;;;;;;2.63;2.42;;;20.30;99.90;;;;;;5072601;28;20470;-51
2022/08/28 09:14:51;;;;;;;2.42;2.22;;;20.20;99.90;;;;;;5072137;28;20487;-49
2022/08/28 09:17:21;;;;;;;2.40;2.20;;;20.10;99.90;;;;;;5051661;28;20099;-50
2022/08/28 09:19:47;;;;;;;3.30;3.00;;;20.10;99.90;;;;;;5051552;28;20075;-49
2022/08/28 09:22:13;;;;;;;2.72;2.47;;;19.90;99.90;;;;;;5051154;28;20113;-50
2022/08/28 09:24:40;;;;;;;2.47;2.28;;;19.80;99.90;;;;;;5051298;28;20032;-51
2022/08/28 09:27:33;;;;;;;3.05;2.75;;;19.80;99.90;;;;;;5050454;28;20480;-50
2022/08/28 09:30:02;;;;;;;5.07;2.95;;;19.90;99.90;;;;;;5067906;28;20036;-51
2022/08/28 09:32:33;;;;;;;2.50;2.30;;;19.90;99.90;;;;;;5073030;28;20040;-53
2022/08/28 09:35:38;;;;;;;2.35;2.15;;;20.00;99.90;;;;;;5073551;28;20070;-56
2022/08/28 09:38:22;;;;;;;2.88;2.67;;;20.10;99.90;;;;;;5029533;28;20067;-51
2022/08/28 09:43:36;;;;;;;2.30;2.10;;;20.00;99.90;;;;;;5072812;28;20086;-51
2022/08/28 09:46:22;;;;;;;3.85;2.78;;;20.10;99.90;;;;;;5072257;28;20360;-50
2022/08/28 09:48:51;;;;;;;3.95;2.95;;;20.00;99.90;;;;;;5072508;28;20367;-53
2022/08/28 09:51:19;;;;;;;2.70;2.50;;;19.90;99.90;;;;;;5071959;28;20052;-53
2022/08/28 09:53:51;;;;;;;2.50;2.30;;;19.90;99.90;;;;;;5072057;28;20020;-53
2022/08/28 09:56:27;;;;;;;2.83;2.58;;;20.10;99.90;;;;;;5070654;28;20023;-50
2022/08/28 09:58:58;;;;;;;3.63;2.50;;;20.00;99.90;;;;;;5072344;28;20028;-50
2022/08/28 10:01:36;;;;;;;3.55;2.75;;;20.00;99.90;;;;;;5072072;28;20142;-52
2022/08/28 10:04:16;;;;;;;4.57;2.65;;;20.10;99.90;;;;;;5072050;28;20047;-49
2022/08/28 10:06:57;;;;;;;2.88;2.58;;;20.10;99.90;;;;;;5071900;28;20028;-49
2022/08/28 10:09:27;;;;;;;3.08;2.85;;;20.10;99.90;;;;;;5071963;28;20047;-49
2022/08/28 10:12:11;;;;;;;3.03;2.75;;;20.10;99.90;;;;;;5071898;28;20074;-49
2022/08/28 10:14:49;;;;;;;2.70;2.50;;;20.20;99.90;;;;;;5079827;28;20031;-51
2022/08/28 10:17:33;;;;;;;4.45;2.95;;;20.30;99.90;;;;;;5071153;28;20375;-50
2022/08/28 10:20:10;;;;;;;;;;;20.30;99.90;;;;;;5093059;28;20035;-49
2022/08/28 10:22:41;;;;;;;3.85;3.33;;;20.30;99.90;;;;;;5051984;28;19904;-49
2022/08/28 10:25:22;;;;;;;4.38;3.97;;;20.40;99.90;;;;;;5052142;28;20526;-51
2022/08/28 10:28:05;;;;;;;5.88;4.22;;;20.60;99.90;;;;;;5068871;28;20036;-53
2022/08/28 10:30:37;;;;;;;3.80;3.50;;;20.80;99.90;;;;;;5091999;28;20024;-50
2022/08/28 10:33:12;;;;;;;5.77;4.40;;;20.90;99.90;;;;;;5092241;28;20028;-51
2022/08/28 10:36:16;;;;;;;5.32;3.47;;;20.90;99.90;;;;;;5092315;28;20028;-52
2022/08/28 10:38:50;;;;;;;5.55;4.25;;;20.90;99.90;;;;;;5028602;28;20040;-49
2022/08/28 10:41:32;;;;;;;6.15;4.63;;;21.00;99.90;;;;;;5029309;28;20048;-51
2022/08/28 10:44:01;;;;;;;8.13;4.45;;;21.10;99.90;;;;;;5069062;28;20498;-51
2022/08/28 10:46:40;;;;;;;4.43;4.03;;;21.10;99.90;;;;;;5092169;28;20486;-49
2022/08/28 10:49:26;;;;;;;5.50;4.95;;;21.10;99.90;;;;;;5092338;28;20020;-50
2022/08/28 10:52:20;;;;;;;8.95;5.13;;;21.00;99.90;;;;;;5079062;28;20040;-50
2022/08/28 10:54:55;;;;;;;6.70;5.18;;;21.00;99.90;;;;;;5065380;28;20106;-53
2022/08/28 10:57:30;;;;;;;4.85;4.38;;;21.10;99.90;;;;;;5060528;28;20063;-50
2022/08/28 10:59:58;;;;;;;8.10;4.97;;;21.00;99.90;;;;;;5059437;28;20024;-49
2022/08/28 11:02:25;;;;;;;7.50;5.35;;;21.00;99.90;;;;;;5061322;28;20376;-53
2022/08/28 11:04:54;;;;;;;5.78;4.93;;;21.10;99.90;;;;;;5061257;28;20029;-57
2022/08/28 11:07:35;;;;;;;7.75;5.50;;;21.10;99.90;;;;;;5060143;28;20095;-52
2022/08/28 11:10:35;;;;;;;5.07;4.65;;;21.20;99.90;;;;;;5059961;28;20107;-51
2022/08/28 11:13:04;;;;;;;6.60;4.82;;;21.00;99.90;;;;;;5041163;28;20164;-50
2022/08/28 11:15:32;;;;;;;4.75;4.32;;;21.30;99.90;;;;;;5062626;28;20048;-50
2022/08/28 11:18:13;;;;;;;5.72;4.53;;;21.10;99.90;;;;;;5076393;28;22421;-51
2022/08/28 11:20:43;;;;;;;5.70;3.83;;;21.50;99.90;;;;;;5070491;28;20041;-53
2022/08/28 11:23:15;;;;;;;6.57;4.35;;;21.60;99.90;;;;;;5075609;28;20039;-50
2022/08/28 11:25:44;;;;;;;7.53;4.20;;;21.30;99.90;;;;;;5073696;28;20136;-50
2022/08/28 11:28:18;;;;;;;7.65;4.10;;;21.50;99.90;;;;;;5073125;28;20039;-53
2022/08/28 11:30:46;;;;;;;3.60;3.05;;;21.80;99.90;;;;;;5074000;28;20060;-50
2022/08/28 11:33:43;;;;;;;3.63;2.78;;;22.10;99.90;;;;;;5060516;28;20024;-50
2022/08/28 11:36:31;;;;;;;3.10;2.80;;;22.30;99.90;;;;;;5058980;28;20040;-49
2022/08/28 11:39:02;;;;;;;3.88;3.33;;;22.60;99.90;;;;;;5059874;28;20036;-52
2022/08/28 11:41:34;;;;;;;2.85;2.65;;;22.60;99.90;;;;;;5060118;28;20056;-49
2022/08/28 11:44:09;;;;;;;2.30;2.10;;;22.90;99.90;;;;;;5059874;28;20585;-50
2022/08/28 11:46:42;;;;;;;2.55;2.35;;;22.20;99.90;;;;;;5061758;28;20032;-50
2022/08/28 11:49:25;;;;;;;3.95;3.47;;;22.30;99.90;;;;;;5075959;28;20036;-50
2022/08/28 11:51:57;;;;;;;;;;;22.30;99.90;;;;;;5077026;28;20086;-50
2022/08/28 11:54:48;;;;;;;3.17;2.90;;;22.20;99.90;;;;;;5075973;28;19912;-51
2022/08/28 11:57:13;;;;;;;3.00;2.80;;;22.70;99.90;;;;;;5077504;28;20036;-50
2022/08/28 12:00:07;;;;;;;2.60;2.40;;;22.50;99.90;;;;;;5068231;28;20031;-49
2022/08/28 12:02:38;;;;;;;4.32;3.67;;;22.40;99.90;;;;;;5079564;28;20020;-49
2022/08/28 12:05:16;;;;;;;3.28;2.97;;;22.10;99.90;;;;;;5081845;28;20049;-49
2022/08/28 12:07:47;;;;;;;4.22;3.58;;;22.10;99.90;;;;;;5083559;28;20127;-52
2022/08/28 12:10:34;;;;;;;4.50;3.58;;;21.80;99.90;;;;;;5084483;28;20028;-50
2022/08/28 12:13:02;;;;;;;4.80;3.53;;;21.70;99.90;;;;;;5052471;28;20044;-49
2022/08/28 12:15:28;;;;;;;3.83;3.10;;;21.80;99.90;;;;;;5064294;28;20033;-50
2022/08/28 12:18:03;;;;;;;3.70;3.35;;;21.70;99.90;;;;;;5064722;28;20406;-50
2022/08/28 12:20:50;;;;;;;8.60;3.47;;;21.90;99.90;;;;;;5063594;28;20110;-50
2022/08/28 12:23:36;;;;;;;4.50;4.10;;;22.10;99.90;;;;;;5063847;28;20052;-53
2022/08/28 12:26:26;;;;;;;6.95;5.32;;;21.90;99.90;;;;;;5063185;28;20036;-50
2022/08/28 12:29:00;;;;;;;6.05;5.47;;;22.20;99.90;;;;;;5063570;28;20546;-52
2022/08/28 12:34:28;;;;;;;3.90;3.47;;;22.30;99.90;;;;;;5063124;28;20043;-51
2022/08/28 12:36:57;;;;;;;3.78;3.40;;;21.80;99.90;;;;;;5063505;28;20427;-49
2022/08/28 12:39:41;;;;;;;6.15;3.47;;;22.00;99.90;;;;;;5062328;28;20096;-50
2022/08/28 12:42:15;;;;;;;4.60;4.00;;;22.20;99.90;;;;;;5064750;28;20107;-50
2022/08/28 12:44:41;;;;;;;3.47;3.17;;;22.70;99.90;;;;;;5063285;28;20031;-52
2022/08/28 12:47:07;;;;;;;2.83;2.55;;;22.90;99.90;;;;;;5063644;28;20407;-49
2022/08/28 12:49:35;;;;;;;5.78;4.43;;;23.40;99.90;;;;;;5062366;28;20526;-52
2022/08/28 12:52:17;;;;;;;5.70;3.42;;;22.90;99.90;;;;;;5062672;28;20082;-52
2022/08/28 12:54:45;;;;;;;4.70;4.22;;;23.00;99.90;;;;;;5063162;28;20036;-51
2022/08/28 12:57:17;;;;;;;5.13;3.60;;;23.60;99.90;;;;;;5062832;28;20064;-51
2022/08/28 12:59:45;;;;;;;3.28;2.97;;;24.10;99.90;;;;;;5062630;28;20025;-51
2022/08/28 13:02:17;;;;;;;3.22;3.00;;;24.60;99.90;;;;;;5062744;28;20127;-53
2022/08/28 13:04:59;;;;;;;3.50;3.00;;;24.60;99.90;;;;;;5062294;28;20398;-52
2022/08/28 13:07:44;;;;;;;5.85;3.63;;;24.60;99.90;;;;;;5062629;28;20178;-49
2022/08/28 13:10:33;;;;;;;6.10;3.50;;;24.50;99.90;;;;;;5063563;28;20029;-54
2022/08/28 13:13:17;;;;;;;5.18;4.00;;;24.40;99.90;;;;;;5062450;28;20626;-53